createdAt,value
2023-02-25T00:01:54.389Z,13.63
2023-02-25T00:04:29.046Z,13.40
2023-02-25T00:06:57.263Z,13.32
2023-02-25T00:09:25.306Z,13.23
2023-02-25T00:11:53.603Z,13.24
2023-02-25T00:14:21.466Z,13.28
2023-02-25T00:16:50.223Z,13.12
2023-02-25T00:19:18.113Z,13.22
2023-02-25T00:21:46.353Z,13.58
2023-02-25T00:24:16.817Z,13.56
2023-02-25T00:26:45.543Z,13.72
2023-02-25T00:29:15.192Z,13.79
2023-02-25T00:31:43.807Z,13.75
2023-02-25T00:34:11.855Z,14.02
2023-02-25T00:36:40.194Z,14.06
2023-02-25T00:39:09.473Z,13.91
2023-02-25T00:41:37.828Z,14.07
2023-02-25T00:44:05.828Z,14.08
2023-02-25T00:46:34.946Z,13.98
2023-02-25T00:49:03.077Z,14.08
2023-02-25T00:51:32.797Z,14.20
2023-02-25T00:54:00.917Z,14.06
2023-02-25T00:56:29.099Z,14.16
2023-02-25T00:58:56.976Z,14.04
2023-02-25T01:01:28.288Z,13.96
2023-02-25T01:03:57.504Z,13.80
2023-02-25T01:06:27.779Z,13.78
2023-02-25T01:08:57.072Z,13.79
2023-02-25T01:11:30.978Z,13.75
2023-02-25T01:14:02.199Z,13.71
2023-02-25T01:16:32.973Z,13.65
2023-02-25T01:19:05.146Z,13.77
2023-02-25T01:21:37.193Z,13.49
2023-02-25T01:24:23.762Z,13.61
2023-02-25T01:26:54.782Z,13.57
2023-02-25T01:29:48.891Z,13.55
2023-02-25T01:32:18.117Z,13.44
2023-02-25T01:34:46.011Z,13.49
2023-02-25T01:37:15.942Z,13.59
2023-02-25T01:39:43.773Z,13.59
2023-02-25T01:42:16.269Z,13.56
2023-02-25T01:45:23.498Z,12.95
2023-02-25T01:48:03.698Z,13.15
2023-02-25T01:50:42.277Z,12.91
2023-02-25T01:53:10.530Z,12.85
2023-02-25T01:55:41.097Z,12.94
2023-02-25T01:58:12.532Z,13.02
2023-02-25T02:00:41.239Z,13.04
2023-02-25T02:03:17.282Z,12.92
2023-02-25T02:06:00.030Z,12.80
2023-02-25T02:08:29.060Z,12.98
2023-02-25T02:10:58.098Z,12.96
2023-02-25T02:13:26.356Z,12.98
2023-02-25T02:16:19.328Z,12.82
2023-02-25T02:18:57.378Z,12.69
2023-02-25T02:21:57.448Z,12.61
2023-02-25T02:24:47.661Z,12.71
2023-02-25T02:27:27.677Z,12.64
2023-02-25T02:30:26.310Z,12.81
2023-02-25T02:33:04.577Z,12.77
2023-02-25T02:36:00.641Z,12.13
2023-02-25T02:38:42.428Z,11.90
2023-02-25T02:41:14.508Z,11.90
2023-02-25T02:43:52.675Z,11.54
2023-02-25T02:46:29.407Z,11.38
2023-02-25T02:49:04.621Z,11.50
2023-02-25T02:51:40.144Z,11.08
2023-02-25T02:54:12.182Z,11.05
2023-02-25T02:56:44.452Z,11.35
2023-02-25T02:59:28.386Z,11.66
2023-02-25T03:02:10.200Z,11.89
2023-02-25T03:04:42.067Z,12.15
2023-02-25T03:07:12.952Z,12.20
2023-02-25T03:09:50.648Z,11.96
2023-02-25T03:12:19.731Z,12.12
2023-02-25T03:14:48.697Z,12.16
2023-02-25T03:17:26.460Z,12.04
2023-02-25T03:20:28.449Z,12.02
2023-02-25T03:23:01.821Z,12.13
2023-02-25T03:25:38.374Z,11.94
2023-02-25T03:28:21.867Z,11.59
2023-02-25T03:31:08.222Z,11.64
2023-02-25T03:33:48.994Z,11.63
2023-02-25T03:36:26.579Z,11.35
2023-02-25T03:39:03.071Z,10.98
2023-02-25T03:41:36.724Z,10.77
2023-02-25T03:44:14.359Z,11.34
2023-02-25T03:46:45.012Z,11.65
2023-02-25T03:49:19.672Z,11.46
2023-02-25T03:51:50.973Z,11.65
2023-02-25T03:54:19.547Z,11.51
2023-02-25T03:56:51.547Z,11.36
2023-02-25T03:59:26.378Z,11.20
2023-02-25T04:01:56.823Z,10.96
2023-02-25T04:04:25.296Z,10.64
2023-02-25T04:06:53.223Z,10.96
2023-02-25T04:09:21.624Z,10.98
2023-02-25T04:11:49.493Z,11.19
2023-02-25T04:14:18.746Z,10.95
2023-02-25T04:16:47.609Z,10.81
2023-02-25T04:19:15.801Z,10.77
2023-02-25T04:21:44.042Z,11.17
2023-02-25T04:24:12.125Z,10.86
2023-02-25T04:26:39.955Z,10.97
2023-02-25T04:29:08.424Z,10.85
2023-02-25T04:31:36.291Z,11.24
2023-02-25T04:34:04.413Z,11.44
2023-02-25T04:36:35.036Z,11.18
2023-02-25T04:39:05.712Z,11.83
2023-02-25T04:41:36.046Z,12.09
2023-02-25T04:44:06.874Z,12.38
2023-02-25T04:46:40.247Z,12.46
2023-02-25T04:49:09.622Z,12.39
2023-02-25T04:51:38.869Z,12.49
2023-02-25T04:54:06.991Z,12.55
2023-02-25T04:56:34.727Z,12.50
2023-02-25T04:59:02.873Z,12.27
2023-02-25T05:01:32.708Z,11.93
2023-02-25T05:04:00.889Z,12.15
2023-02-25T05:06:28.713Z,12.42
2023-02-25T05:08:57.906Z,12.61
2023-02-25T05:11:28.314Z,12.63
2023-02-25T05:13:57.621Z,12.66
2023-02-25T05:16:26.860Z,12.64
2023-02-25T05:18:55.556Z,12.53
2023-02-25T05:21:25.493Z,12.46
2023-02-25T05:23:54.438Z,12.61
2023-02-25T05:26:24.784Z,12.49
2023-02-25T05:28:55.433Z,12.06
2023-02-25T05:31:25.116Z,12.15
2023-02-25T05:33:53.961Z,11.97
2023-02-25T05:36:24.022Z,11.80
2023-02-25T05:38:55.476Z,11.76
2023-02-25T05:41:23.304Z,11.71
2023-02-25T05:43:51.420Z,11.94
2023-02-25T05:46:19.159Z,11.65
2023-02-25T05:48:47.307Z,11.78
2023-02-25T05:51:18.458Z,11.80
2023-02-25T05:53:48.154Z,11.75
2023-02-25T05:56:19.179Z,11.64
2023-02-25T05:58:48.720Z,11.87
2023-02-25T06:01:22.938Z,11.93
2023-02-25T06:03:58.873Z,11.95
2023-02-25T06:06:29.516Z,12.00
2023-02-25T06:08:58.269Z,11.95
2023-02-25T06:11:29.312Z,11.95
2023-02-25T06:13:58.999Z,11.97
2023-02-25T06:16:33.132Z,12.09
2023-02-25T06:19:02.063Z,12.22
2023-02-25T06:21:30.887Z,11.99
2023-02-25T06:23:59.247Z,12.05
2023-02-25T06:26:27.273Z,11.93
2023-02-25T06:28:56.732Z,12.04
2023-02-25T06:31:25.388Z,12.26
2023-02-25T06:33:55.211Z,12.29
2023-02-25T06:36:23.647Z,12.36
2023-02-25T06:38:51.914Z,12.47
2023-02-25T06:41:21.454Z,12.53
2023-02-25T06:43:52.356Z,12.64
2023-02-25T06:46:24.408Z,12.78
2023-02-25T06:48:53.625Z,12.82
2023-02-25T06:51:22.238Z,13.02
2023-02-25T06:53:51.406Z,12.89
2023-02-25T06:56:20.612Z,12.78
2023-02-25T06:58:48.811Z,12.84
2023-02-25T07:01:17.092Z,12.88
2023-02-25T07:03:45.322Z,12.94
2023-02-25T07:06:16.635Z,13.07
2023-02-25T07:08:46.066Z,13.16
2023-02-25T07:11:19.640Z,13.31
2023-02-25T07:13:49.275Z,13.32
2023-02-25T07:16:17.872Z,13.50
2023-02-25T07:18:46.135Z,13.53
2023-02-25T07:21:16.121Z,13.63
2023-02-25T07:23:44.988Z,13.83
2023-02-25T07:26:14.382Z,14.00
2023-02-25T07:28:43.754Z,14.01
2023-02-25T07:31:14.358Z,14.20
2023-02-25T07:33:43.420Z,14.35
2023-02-25T07:36:12.442Z,14.50
2023-02-25T07:38:41.234Z,14.28
2023-02-25T07:41:12.316Z,14.36
2023-02-25T07:43:41.161Z,14.29
2023-02-25T07:46:09.839Z,14.31
2023-02-25T07:48:37.996Z,14.40
2023-02-25T07:51:18.814Z,14.20
2023-02-25T07:53:48.177Z,14.34
2023-02-25T07:56:16.953Z,14.27
2023-02-25T07:58:45.514Z,14.55
2023-02-25T08:01:20.091Z,14.53
2023-02-25T08:03:49.328Z,14.52
2023-02-25T08:06:17.174Z,14.37
2023-02-25T08:08:45.682Z,14.42
2023-02-25T08:11:15.040Z,14.49
2023-02-25T08:13:43.447Z,14.46
2023-02-25T08:16:14.502Z,14.11
2023-02-25T08:18:43.036Z,14.10
2023-02-25T08:21:12.601Z,14.26
2023-02-25T08:23:41.289Z,14.64
2023-02-25T08:26:12.394Z,14.45
2023-02-25T08:28:40.786Z,14.39
2023-02-25T08:31:12.126Z,14.25
2023-02-25T08:33:43.748Z,14.71
2023-02-25T08:36:20.876Z,14.64
2023-02-25T08:38:50.446Z,14.89
2023-02-25T08:41:20.104Z,15.27
2023-02-25T08:43:52.204Z,15.43
2023-02-25T08:46:22.689Z,15.82
2023-02-25T08:48:53.134Z,16.04
2023-02-25T08:51:23.621Z,16.32
2023-02-25T08:53:52.481Z,16.20
2023-02-25T08:56:20.480Z,16.49
2023-02-25T08:58:48.705Z,16.08
2023-02-25T09:01:18.055Z,16.35
2023-02-25T09:03:54.197Z,16.37
2023-02-25T09:06:24.948Z,16.21
2023-02-25T09:08:54.792Z,16.33
2023-02-25T09:11:24.282Z,16.31
2023-02-25T09:13:54.425Z,16.15
2023-02-25T09:16:22.418Z,16.29
2023-02-25T09:18:51.915Z,16.27
2023-02-25T09:21:21.508Z,16.63
2023-02-25T09:23:53.352Z,16.80
2023-02-25T09:26:22.039Z,17.02
2023-02-25T09:28:50.918Z,17.10
2023-02-25T09:31:19.576Z,16.49
2023-02-25T09:33:48.146Z,16.60
2023-02-25T09:36:18.457Z,15.74
2023-02-25T09:38:48.722Z,15.75
2023-02-25T09:41:35.086Z,15.67
2023-02-25T09:44:29.174Z,15.86
2023-02-25T09:47:05.583Z,15.99
2023-02-25T09:50:03.490Z,15.80
2023-02-25T09:52:32.828Z,16.44
2023-02-25T09:55:24.436Z,16.97
2023-02-25T09:58:09.016Z,16.41
2023-02-25T10:00:57.285Z,16.81
2023-02-25T10:03:51.725Z,16.83
2023-02-25T10:06:30.216Z,16.53
2023-02-25T10:09:17.781Z,16.55
2023-02-25T10:12:19.400Z,16.91
2023-02-25T10:15:06.437Z,16.21
2023-02-25T10:18:00.880Z,16.09
2023-02-25T10:20:50.253Z,15.97
2023-02-25T10:23:39.878Z,16.16
2023-02-25T10:26:19.858Z,16.74
2023-02-25T10:28:55.435Z,16.73
2023-02-25T10:31:24.207Z,16.70
2023-02-25T10:33:54.237Z,16.44
2023-02-25T10:36:29.341Z,17.40
2023-02-25T10:38:58.047Z,17.28
2023-02-25T10:41:30.118Z,16.85
2023-02-25T10:43:58.627Z,17.06
2023-02-25T10:46:35.134Z,16.79
2023-02-25T10:49:16.397Z,17.05
2023-02-25T10:52:10.642Z,17.31
2023-02-25T10:54:53.369Z,17.36
2023-02-25T10:57:34.625Z,17.92
2023-02-25T11:00:13.405Z,18.75
2023-02-25T11:02:44.304Z,18.27
2023-02-25T11:05:43.768Z,18.17
2023-02-25T11:08:34.389Z,18.09
2023-02-25T11:11:13.569Z,18.69
2023-02-25T11:13:41.700Z,18.48
2023-02-25T11:16:14.056Z,19.06
2023-02-25T11:18:42.429Z,18.59
2023-02-25T11:21:13.727Z,18.76
2023-02-25T11:23:49.131Z,18.68
2023-02-25T11:26:38.254Z,17.78
2023-02-25T11:29:14.910Z,18.71
2023-02-25T11:31:44.276Z,19.39
2023-02-25T11:34:28.090Z,20.23
2023-02-25T11:37:00.249Z,19.83
2023-02-25T11:39:31.868Z,19.72
2023-02-25T11:42:23.406Z,20.54
2023-02-25T11:45:02.257Z,20.48
2023-02-25T11:47:33.911Z,19.88
2023-02-25T11:50:57.276Z,19.38
2023-02-25T11:53:45.253Z,20.27
2023-02-25T11:56:13.158Z,19.91
2023-02-25T11:59:03.156Z,20.40
2023-02-25T12:02:00.307Z,20.71
2023-02-25T12:04:34.356Z,21.09
2023-02-25T12:07:08.553Z,21.51
2023-02-25T12:10:07.030Z,22.33
2023-02-25T12:12:57.290Z,21.98
2023-02-25T12:15:57.696Z,21.87
2023-02-25T12:18:52.985Z,23.39
2023-02-25T12:21:50.519Z,23.31
2023-02-25T12:24:59.660Z,23.32
2023-02-25T12:28:08.806Z,22.58
2023-02-25T12:30:42.383Z,22.97
2023-02-25T12:33:32.107Z,22.22
2023-02-25T12:36:30.129Z,23.31
2023-02-25T12:39:25.946Z,23.13
2023-02-25T12:41:59.788Z,23.58
2023-02-25T12:44:39.311Z,24.38
2023-02-25T12:47:41.008Z,24.19
2023-02-25T12:50:27.150Z,23.84
2023-02-25T12:53:18.808Z,23.12
2023-02-25T12:56:34.224Z,22.73
2023-02-25T12:59:20.874Z,23.08
2023-02-25T13:02:12.485Z,23.52
2023-02-25T13:05:17.072Z,23.17
2023-02-25T13:08:12.653Z,23.70
2023-02-25T13:11:00.682Z,23.55
2023-02-25T13:14:14.124Z,22.71
2023-02-25T13:17:04.674Z,22.90
2023-02-25T13:20:00.660Z,21.70
2023-02-25T13:22:36.394Z,21.37
2023-02-25T13:25:23.565Z,20.05
2023-02-25T13:28:01.004Z,20.18
2023-02-25T13:30:58.332Z,20.52
2023-02-25T13:33:53.145Z,20.96
2023-02-25T13:36:53.173Z,20.02
2023-02-25T13:39:44.838Z,20.65
2023-02-25T13:42:54.474Z,20.04
2023-02-25T13:45:28.603Z,20.48
2023-02-25T13:48:17.382Z,19.79
2023-02-25T13:51:08.249Z,20.08
2023-02-25T13:54:00.715Z,19.88
2023-02-25T13:57:18.125Z,19.64
2023-02-25T14:00:24.090Z,20.50
2023-02-25T14:03:15.082Z,19.65
2023-02-25T14:06:12.814Z,20.10
2023-02-25T14:09:02.215Z,19.91
2023-02-25T14:11:37.844Z,20.17
2023-02-25T14:14:19.517Z,20.00
2023-02-25T14:17:09.813Z,19.78
2023-02-25T14:19:44.927Z,20.55
2023-02-25T14:22:36.888Z,19.80
2023-02-25T14:25:13.497Z,19.41
2023-02-25T14:28:00.302Z,19.40
2023-02-25T14:30:43.881Z,19.54
2023-02-25T14:33:19.422Z,19.58
2023-02-25T14:36:02.856Z,19.53
2023-02-25T14:39:08.503Z,19.50
2023-02-25T14:41:49.511Z,19.30
2023-02-25T14:44:27.332Z,19.05
2023-02-25T14:47:01.179Z,19.32
2023-02-25T14:49:32.562Z,18.87
2023-02-25T14:52:41.934Z,18.95
2023-02-25T14:55:46.192Z,19.32
2023-02-25T14:58:26.359Z,19.20
2023-02-25T15:01:14.917Z,18.73
2023-02-25T15:04:30.790Z,19.18
2023-02-25T15:07:44.801Z,18.81
2023-02-25T15:10:36.061Z,19.23
2023-02-25T15:13:31.736Z,18.90
2023-02-25T15:16:02.611Z,18.99
2023-02-25T15:19:25.178Z,19.37
2023-02-25T15:22:18.770Z,19.23
2023-02-25T15:24:47.975Z,19.09
2023-02-25T15:27:38.263Z,19.23
2023-02-25T15:30:12.165Z,18.98
2023-02-25T15:32:54.873Z,18.45
2023-02-25T15:35:35.286Z,18.32
2023-02-25T15:38:08.750Z,18.84
2023-02-25T15:40:51.129Z,18.76
2023-02-25T15:43:18.822Z,19.44
2023-02-25T15:46:08.934Z,19.36
2023-02-25T15:48:39.231Z,19.59
2023-02-25T15:51:31.954Z,19.32
2023-02-25T15:54:00.026Z,19.32
2023-02-25T15:56:47.583Z,19.01
2023-02-25T15:59:55.894Z,19.51
2023-02-25T16:02:27.228Z,19.35
2023-02-25T16:05:02.489Z,19.24
2023-02-25T16:07:37.993Z,19.32
2023-02-25T16:10:31.758Z,19.22
2023-02-25T16:13:01.280Z,18.80
2023-02-25T16:15:35.477Z,19.05
2023-02-25T16:18:15.685Z,18.80
2023-02-25T16:20:48.447Z,18.88
2023-02-25T16:23:17.945Z,18.50
2023-02-25T16:26:14.186Z,18.32
2023-02-25T16:29:06.494Z,18.48
2023-02-25T16:32:09.853Z,18.62
2023-02-25T16:34:52.340Z,18.73
2023-02-25T16:37:28.256Z,18.45
2023-02-25T16:39:58.298Z,18.39
2023-02-25T16:42:26.793Z,18.41
2023-02-25T16:45:02.244Z,18.36
2023-02-25T16:47:33.494Z,18.48
2023-02-25T16:50:11.796Z,18.34
2023-02-25T16:52:45.927Z,18.07
2023-02-25T16:55:21.394Z,18.26
2023-02-25T16:58:14.812Z,18.30
2023-02-25T17:00:52.668Z,18.21
2023-02-25T17:03:22.112Z,18.07
2023-02-25T17:06:18.184Z,18.17
2023-02-25T17:08:48.457Z,18.09
2023-02-25T17:11:18.985Z,17.94
2023-02-25T17:13:50.454Z,17.89
2023-02-25T17:16:30.758Z,18.00
2023-02-25T17:19:05.575Z,18.01
2023-02-25T17:21:38.405Z,17.91
2023-02-25T17:24:11.974Z,17.76
2023-02-25T17:26:42.459Z,17.76
2023-02-25T17:29:15.626Z,17.69
2023-02-25T17:31:52.876Z,17.71
2023-02-25T17:34:31.297Z,17.68
2023-02-25T17:37:03.600Z,17.57
2023-02-25T17:39:31.813Z,17.45
2023-02-25T17:42:00.457Z,17.43
2023-02-25T17:44:38.446Z,17.45
2023-02-25T17:47:09.865Z,17.09
2023-02-25T17:49:38.798Z,16.77
2023-02-25T17:52:32.198Z,16.89
2023-02-25T17:55:04.509Z,16.59
2023-02-25T17:57:34.006Z,16.70
2023-02-25T18:00:24.586Z,16.66
2023-02-25T18:03:19.629Z,16.41
2023-02-25T18:05:55.990Z,16.35
2023-02-25T18:08:26.784Z,16.20
2023-02-25T18:10:58.221Z,16.51
2023-02-25T18:13:34.073Z,16.31
2023-02-25T18:16:29.552Z,16.30
2023-02-25T18:19:00.014Z,16.40
2023-02-25T18:21:29.030Z,16.47
2023-02-25T18:23:59.441Z,16.52
2023-02-25T18:26:27.563Z,16.42
2023-02-25T18:28:57.918Z,16.44
2023-02-25T18:31:25.815Z,16.39
2023-02-25T18:33:55.207Z,16.36
2023-02-25T18:36:27.032Z,16.29
2023-02-25T18:39:00.907Z,16.31
2023-02-25T18:41:28.822Z,16.50
2023-02-25T18:43:56.942Z,16.23
2023-02-25T18:46:24.958Z,16.15
2023-02-25T18:48:53.310Z,16.20
2023-02-25T18:51:21.068Z,16.11
2023-02-25T18:53:49.130Z,16.00
2023-02-25T18:56:17.701Z,15.85
2023-02-25T18:58:45.945Z,15.87
2023-02-25T19:01:23.364Z,15.77
2023-02-25T19:03:52.375Z,15.91
2023-02-25T19:06:20.477Z,16.07
2023-02-25T19:08:49.116Z,16.12
2023-02-25T19:11:37.087Z,15.95
2023-02-25T19:14:06.852Z,15.99
2023-02-25T19:16:34.975Z,15.88
2023-02-25T19:19:03.233Z,16.05
2023-02-25T19:21:31.115Z,16.16
2023-02-25T19:23:59.219Z,15.92
2023-02-25T19:26:27.284Z,15.99
2023-02-25T19:28:55.745Z,15.88
2023-02-25T19:31:23.600Z,15.82
2023-02-25T19:33:51.660Z,15.97
2023-02-25T19:36:19.409Z,16.00
2023-02-25T19:38:47.429Z,15.80
2023-02-25T19:41:15.268Z,15.98
2023-02-25T19:43:43.406Z,16.11
2023-02-25T19:46:11.317Z,16.04
2023-02-25T19:48:39.533Z,16.07
2023-02-25T19:51:09.564Z,16.19
2023-02-25T19:53:37.790Z,15.96
2023-02-25T19:56:08.029Z,15.96
2023-02-25T19:58:36.262Z,15.85
2023-02-25T20:01:08.918Z,15.86
2023-02-25T20:03:37.203Z,15.78
2023-02-25T20:06:12.274Z,16.05
2023-02-25T20:08:41.437Z,15.80
2023-02-25T20:11:10.802Z,15.86
2023-02-25T20:13:38.903Z,15.81
2023-02-25T20:16:07.142Z,15.65
2023-02-25T20:18:35.777Z,15.65
2023-02-25T20:21:04.327Z,15.82
2023-02-25T20:23:32.440Z,15.76
2023-02-25T20:26:08.661Z,15.82
2023-02-25T20:28:37.160Z,15.70
2023-02-25T20:31:14.985Z,15.63
2023-02-25T20:33:43.869Z,15.79
2023-02-25T20:36:24.362Z,15.70
2023-02-25T20:39:13.384Z,15.50
2023-02-25T20:41:45.317Z,15.61
2023-02-25T20:44:14.554Z,15.49
2023-02-25T20:46:43.322Z,15.76
2023-02-25T20:49:14.717Z,15.62
2023-02-25T20:51:44.932Z,15.51
2023-02-25T20:54:15.166Z,15.75
2023-02-25T20:56:43.519Z,15.74
2023-02-25T20:59:13.466Z,15.68
2023-02-25T21:01:42.628Z,15.80
2023-02-25T21:04:11.384Z,15.58
2023-02-25T21:06:39.736Z,15.25
2023-02-25T21:09:08.279Z,15.22
2023-02-25T21:11:36.037Z,15.37
2023-02-25T21:14:04.284Z,15.29
2023-02-25T21:16:32.556Z,15.29
2023-02-25T21:19:01.312Z,15.04
2023-02-25T21:21:31.750Z,15.37
2023-02-25T21:23:59.827Z,15.20
2023-02-25T21:26:27.518Z,15.28
2023-02-25T21:28:55.628Z,15.40
2023-02-25T21:31:23.669Z,15.27
2023-02-25T21:33:52.018Z,15.46
2023-02-25T21:36:19.909Z,15.65
2023-02-25T21:38:47.964Z,15.54
2023-02-25T21:41:16.980Z,15.45
2023-02-25T21:43:45.382Z,15.26
2023-02-25T21:46:16.614Z,15.30
2023-02-25T21:48:47.486Z,15.47
2023-02-25T21:51:26.255Z,15.20
2023-02-25T21:53:56.691Z,15.23
2023-02-25T21:56:26.143Z,15.18
2023-02-25T21:58:59.940Z,15.06
2023-02-25T22:01:30.824Z,14.85
2023-02-25T22:03:59.426Z,14.65
2023-02-25T22:06:28.378Z,14.42
2023-02-25T22:08:57.536Z,14.69
2023-02-25T22:11:30.915Z,14.62
2023-02-25T22:14:01.107Z,14.85
2023-02-25T22:16:29.500Z,14.58
2023-02-25T22:18:58.857Z,14.49
2023-02-25T22:21:32.440Z,14.64
2023-02-25T22:24:03.035Z,14.82
2023-02-25T22:26:33.124Z,14.53
2023-02-25T22:29:04.978Z,14.76
2023-02-25T22:31:34.309Z,14.58
2023-02-25T22:34:03.080Z,14.73
2023-02-25T22:36:30.977Z,14.58
2023-02-25T22:38:59.062Z,14.38
2023-02-25T22:41:29.314Z,14.36
2023-02-25T22:43:58.847Z,14.48
2023-02-25T22:46:29.866Z,14.21
2023-02-25T22:48:58.884Z,14.31
2023-02-25T22:51:32.564Z,14.15
2023-02-25T22:54:00.986Z,14.02
2023-02-25T22:56:29.197Z,13.99
2023-02-25T22:58:57.331Z,14.02
2023-02-25T23:01:26.864Z,14.16
2023-02-25T23:03:56.143Z,14.32
2023-02-25T23:06:37.450Z,14.62
2023-02-25T23:09:11.620Z,14.54
2023-02-25T23:11:42.133Z,14.37
2023-02-25T23:14:10.969Z,14.52
2023-02-25T23:16:42.222Z,14.66
2023-02-25T23:19:14.164Z,14.76
2023-02-25T23:21:42.058Z,14.89
2023-02-25T23:24:16.469Z,14.91
2023-02-25T23:26:45.565Z,14.84
2023-02-25T23:29:13.845Z,14.91
2023-02-25T23:31:47.401Z,14.89
2023-02-25T23:34:23.620Z,14.78
2023-02-25T23:36:56.759Z,14.96
2023-02-25T23:39:25.647Z,15.02
2023-02-25T23:41:53.472Z,14.66
2023-02-25T23:44:21.569Z,14.42
2023-02-25T23:46:49.307Z,14.45
2023-02-25T23:49:18.131Z,14.42
2023-02-25T23:51:47.549Z,14.54
2023-02-25T23:54:19.216Z,14.38
2023-02-25T23:56:47.339Z,14.27
2023-02-25T23:59:16.424Z,14.29
